createdAt,value
2022-07-28T00:00:44.567Z,89.36
2022-07-28T00:01:44.556Z,89.87
2022-07-28T00:02:44.665Z,89.97
2022-07-28T00:03:44.518Z,89.76
2022-07-28T00:04:44.505Z,89.97
2022-07-28T00:05:44.503Z,89.97
2022-07-28T00:06:44.492Z,90.17
2022-07-28T00:07:44.485Z,89.97
2022-07-28T00:08:44.500Z,89.60
2022-07-28T00:09:44.466Z,89.50
2022-07-28T00:10:44.468Z,89.09
2022-07-28T00:11:54.210Z,90.01
2022-07-28T00:12:45.473Z,90.73
2022-07-28T00:13:44.441Z,90.93
2022-07-28T00:14:44.439Z,90.77
2022-07-28T00:15:44.422Z,90.52
2022-07-28T00:16:44.451Z,90.56
2022-07-28T00:17:44.432Z,90.52
2022-07-28T00:18:44.398Z,90.62
2022-07-28T00:19:44.392Z,90.32
2022-07-28T00:20:44.386Z,90.01
2022-07-28T00:21:44.377Z,90.56
2022-07-28T00:22:44.396Z,91.18
2022-07-28T00:23:44.360Z,91.18
2022-07-28T00:24:44.355Z,90.67
2022-07-28T00:25:44.343Z,91.14
2022-07-28T00:26:46.648Z,90.56
2022-07-28T00:27:44.360Z,90.36
2022-07-28T00:28:44.320Z,90.36
2022-07-28T00:29:50.394Z,90.42
2022-07-28T00:30:46.302Z,90.56
2022-07-28T00:31:44.323Z,90.87
2022-07-28T00:32:44.287Z,91.08
2022-07-28T00:33:44.304Z,91.28
2022-07-28T00:34:44.271Z,91.18
2022-07-28T00:35:48.395Z,91.18
2022-07-28T00:36:44.267Z,90.71
2022-07-28T00:37:44.272Z,90.97
2022-07-28T00:38:45.942Z,91.18
2022-07-28T00:39:44.233Z,90.87
2022-07-28T00:40:44.227Z,91.28
2022-07-28T00:41:44.212Z,90.67
2022-07-28T00:42:44.237Z,89.95
2022-07-28T00:43:44.196Z,90.36
2022-07-28T00:44:44.196Z,90.67
2022-07-28T00:45:44.189Z,89.58
2022-07-28T00:46:44.215Z,89.89
2022-07-28T00:47:44.194Z,89.58
2022-07-28T00:48:44.248Z,90.61
2022-07-28T00:49:44.157Z,90.81
2022-07-28T00:50:44.150Z,90.95
2022-07-28T00:51:44.142Z,91.27
2022-07-28T00:52:44.164Z,91.47
2022-07-28T00:53:45.126Z,91.57
2022-07-28T00:54:44.119Z,91.02
2022-07-28T00:56:03.313Z,91.27
2022-07-28T00:56:45.105Z,91.27
2022-07-28T00:57:44.116Z,91.33
2022-07-28T00:58:44.082Z,91.37
2022-07-28T00:59:44.076Z,91.57
2022-07-28T01:00:44.074Z,91.37
2022-07-28T01:01:44.115Z,91.74
2022-07-28T01:02:44.180Z,91.67
2022-07-28T01:03:44.056Z,91.84
2022-07-28T01:04:44.047Z,91.94
2022-07-28T01:05:44.460Z,91.99
2022-07-28T01:06:44.030Z,91.63
2022-07-28T01:07:44.055Z,91.84
2022-07-28T01:08:44.011Z,92.80
2022-07-28T01:09:44.002Z,92.35
2022-07-28T01:10:43.995Z,92.19
2022-07-28T01:11:43.991Z,91.67
2022-07-28T01:12:43.982Z,91.67
2022-07-28T01:13:44.011Z,91.78
2022-07-28T01:14:43.968Z,91.63
2022-07-28T01:15:44.041Z,91.57
2022-07-28T01:16:43.947Z,91.42
2022-07-28T01:17:43.935Z,91.67
2022-07-28T01:18:44.574Z,91.67
2022-07-28T01:19:43.926Z,91.84
2022-07-28T01:20:43.921Z,91.63
2022-07-28T01:21:43.909Z,91.67
2022-07-28T01:22:43.900Z,92.08
2022-07-28T01:23:43.921Z,92.50
2022-07-28T01:24:43.876Z,92.70
2022-07-28T01:25:48.461Z,92.80
2022-07-28T01:26:43.872Z,92.74
2022-07-28T01:27:43.860Z,93.05
2022-07-28T01:28:43.879Z,92.70
2022-07-28T01:29:43.850Z,93.05
2022-07-28T01:30:43.912Z,93.01
2022-07-28T01:31:43.946Z,92.50
2022-07-28T01:32:43.828Z,92.95
2022-07-28T01:33:43.843Z,93.01
2022-07-28T01:34:43.808Z,92.91
2022-07-28T01:35:43.800Z,93.16
2022-07-28T01:36:43.793Z,93.16
2022-07-28T01:37:43.785Z,93.05
2022-07-28T01:38:43.805Z,92.95
2022-07-28T01:39:43.770Z,92.95
2022-07-28T01:40:43.765Z,93.26
2022-07-28T01:41:43.756Z,93.36
2022-07-28T01:42:43.750Z,93.16
2022-07-28T01:43:43.768Z,93.16
2022-07-28T01:44:43.732Z,93.36
2022-07-28T01:45:43.723Z,93.63
2022-07-28T01:46:43.804Z,93.42
2022-07-28T01:47:43.706Z,93.42
2022-07-28T01:48:43.779Z,93.26
2022-07-28T01:49:43.691Z,93.26
2022-07-28T01:50:43.683Z,93.12
2022-07-28T01:51:43.677Z,92.64
2022-07-28T01:52:43.668Z,92.74
2022-07-28T01:53:43.677Z,92.95
2022-07-28T01:54:44.657Z,92.74
2022-07-28T01:55:43.649Z,92.74
2022-07-28T01:56:43.637Z,92.64
2022-07-28T01:57:43.633Z,92.64
2022-07-28T01:58:43.646Z,92.64
2022-07-28T01:59:43.620Z,92.85
2022-07-28T02:00:43.610Z,92.64
2022-07-28T02:01:43.713Z,93.05
2022-07-28T02:02:43.593Z,92.80
2022-07-28T02:03:43.619Z,92.33
2022-07-28T02:04:43.684Z,92.74
2022-07-28T02:05:43.572Z,92.64
2022-07-28T02:06:43.566Z,93.46
2022-07-28T02:07:43.561Z,93.16
2022-07-28T02:08:43.574Z,93.36
2022-07-28T02:09:43.546Z,93.36
2022-07-28T02:10:43.537Z,93.36
2022-07-28T02:11:43.528Z,93.46
2022-07-28T02:12:43.524Z,93.67
2022-07-28T02:13:43.541Z,93.77
2022-07-28T02:14:43.502Z,93.57
2022-07-28T02:15:43.545Z,93.71
2022-07-28T02:16:43.495Z,93.71
2022-07-28T02:17:43.483Z,93.82
2022-07-28T02:18:43.500Z,93.82
2022-07-28T02:19:43.463Z,93.40
2022-07-28T02:20:43.455Z,93.40
2022-07-28T02:21:43.451Z,93.82
2022-07-28T02:22:43.442Z,94.64
2022-07-28T02:23:43.466Z,94.84
2022-07-28T02:24:43.426Z,94.12
2022-07-28T02:25:43.416Z,94.54
2022-07-28T02:26:43.409Z,94.59
2022-07-28T02:27:43.403Z,94.84
2022-07-28T02:28:43.427Z,94.74
2022-07-28T02:29:51.622Z,94.64
2022-07-28T02:30:45.443Z,94.54
2022-07-28T02:31:43.369Z,94.74
2022-07-28T02:32:43.355Z,94.33
2022-07-28T02:33:58.634Z,94.54
2022-07-28T02:34:44.343Z,94.33
2022-07-28T02:35:43.334Z,94.64
2022-07-28T02:36:43.332Z,94.54
2022-07-28T02:37:43.322Z,94.23
2022-07-28T02:38:43.313Z,94.64
2022-07-28T02:39:43.329Z,94.64
2022-07-28T02:40:44.308Z,94.84
2022-07-28T02:41:43.290Z,94.33
2022-07-28T02:42:43.283Z,94.74
2022-07-28T02:43:50.037Z,94.33
2022-07-28T02:44:44.288Z,94.43
2022-07-28T02:45:43.258Z,94.23
2022-07-28T02:46:43.291Z,94.74
2022-07-28T02:47:43.243Z,95.05
2022-07-28T02:48:43.255Z,94.84
2022-07-28T02:49:43.256Z,94.64
2022-07-28T02:50:43.225Z,94.84
2022-07-28T02:51:43.213Z,94.95
2022-07-28T02:52:43.205Z,94.84
2022-07-28T02:53:43.199Z,93.86
2022-07-28T02:54:43.208Z,94.37
2022-07-28T02:55:43.182Z,94.64
2022-07-28T02:56:53.263Z,94.23
2022-07-28T02:57:44.165Z,94.99
2022-07-28T02:58:43.160Z,94.84
2022-07-28T02:59:43.175Z,94.54
2022-07-28T03:00:43.134Z,94.23
2022-07-28T03:01:44.195Z,94.99
2022-07-28T03:02:43.139Z,94.99
2022-07-28T03:03:44.205Z,94.33
2022-07-28T03:04:44.180Z,94.58
2022-07-28T03:05:43.131Z,94.58
2022-07-28T03:06:43.103Z,94.78
2022-07-28T03:07:51.149Z,94.89
2022-07-28T03:08:44.087Z,94.99
2022-07-28T03:09:43.104Z,94.99
2022-07-28T03:10:43.074Z,95.30
2022-07-28T03:11:43.059Z,95.20
2022-07-28T03:12:43.057Z,94.48
2022-07-28T03:13:43.051Z,94.99
2022-07-28T03:14:43.072Z,95.20
2022-07-28T03:15:43.035Z,94.99
2022-07-28T03:16:43.121Z,95.30
2022-07-28T03:17:43.018Z,95.30
2022-07-28T03:18:43.008Z,95.81
2022-07-28T03:19:43.024Z,95.61
2022-07-28T03:20:42.995Z,95.61
2022-07-28T03:21:42.984Z,95.14
2022-07-28T03:22:42.987Z,95.40
2022-07-28T03:23:42.962Z,95.71
2022-07-28T03:24:42.988Z,95.71
2022-07-28T03:25:42.958Z,96.43
2022-07-28T03:26:42.951Z,96.22
2022-07-28T03:27:42.939Z,96.22
2022-07-28T03:28:42.934Z,95.92
2022-07-28T03:29:42.950Z,95.92
2022-07-28T03:30:43.042Z,96.12
2022-07-28T03:31:42.906Z,96.12
2022-07-28T03:32:42.893Z,96.12
2022-07-28T03:33:42.888Z,96.28
2022-07-28T03:34:42.909Z,96.12
2022-07-28T03:35:42.878Z,95.77
2022-07-28T03:36:42.861Z,96.39
2022-07-28T03:37:42.848Z,95.87
2022-07-28T03:38:43.851Z,95.36
2022-07-28T03:39:42.868Z,95.36
2022-07-28T03:40:46.111Z,95.15
2022-07-28T03:41:42.828Z,95.36
2022-07-28T03:42:42.817Z,95.36
2022-07-28T03:43:42.815Z,95.52
2022-07-28T03:44:42.830Z,95.31
2022-07-28T03:45:42.847Z,95.21
2022-07-28T03:46:42.805Z,95.62
2022-07-28T03:47:42.795Z,95.93
2022-07-28T03:48:42.837Z,96.19
2022-07-28T03:49:42.794Z,96.50
2022-07-28T03:50:42.755Z,96.15
2022-07-28T03:51:42.755Z,95.98
2022-07-28T03:52:42.744Z,95.94
2022-07-28T03:53:42.732Z,96.35
2022-07-28T03:54:42.746Z,96.15
2022-07-28T03:55:42.723Z,95.49
2022-07-28T03:56:42.718Z,95.28
2022-07-28T03:57:42.701Z,95.59
2022-07-28T03:58:42.688Z,94.26
2022-07-28T03:59:42.719Z,94.77
2022-07-28T04:00:42.686Z,92.93
2022-07-28T04:01:42.708Z,92.72
2022-07-28T04:02:42.688Z,92.93
2022-07-28T04:03:44.495Z,92.41
2022-07-28T04:04:43.674Z,92.51
2022-07-28T04:05:42.647Z,93.02
2022-07-28T04:06:42.638Z,92.93
2022-07-28T04:07:42.625Z,92.36
2022-07-28T04:08:42.622Z,92.88
2022-07-28T04:09:42.646Z,92.57
2022-07-28T04:10:42.611Z,93.08
2022-07-28T04:11:42.602Z,92.57
2022-07-28T04:12:42.594Z,92.78
2022-07-28T04:13:42.580Z,92.32
2022-07-28T04:14:42.603Z,92.88
2022-07-28T04:15:42.570Z,92.43
2022-07-28T04:16:42.639Z,92.98
2022-07-28T04:17:42.554Z,93.08
2022-07-28T04:18:42.550Z,93.19
2022-07-28T04:19:42.554Z,93.08
2022-07-28T04:20:43.533Z,93.49
2022-07-28T04:21:42.521Z,93.08
2022-07-28T04:22:42.513Z,93.60
2022-07-28T04:23:42.510Z,93.85
2022-07-28T04:24:42.524Z,94.67
2022-07-28T04:25:42.490Z,94.73
2022-07-28T04:26:44.218Z,94.73
2022-07-28T04:27:42.479Z,94.73
2022-07-28T04:28:42.465Z,94.11
2022-07-28T04:29:42.478Z,93.60
2022-07-28T04:30:44.088Z,93.39
2022-07-28T04:31:42.437Z,93.86
2022-07-28T04:32:42.433Z,92.83
2022-07-28T04:33:42.423Z,92.74
2022-07-28T04:34:42.417Z,92.79
2022-07-28T04:35:42.432Z,91.11
2022-07-28T04:36:42.394Z,90.81
2022-07-28T04:37:43.390Z,90.15
2022-07-28T04:38:42.379Z,90.30
2022-07-28T04:39:42.372Z,89.98
2022-07-28T04:40:42.410Z,90.34
2022-07-28T04:41:42.366Z,89.98
2022-07-28T04:42:42.348Z,91.11
2022-07-28T04:43:42.341Z,90.50
2022-07-28T04:44:42.360Z,91.11
2022-07-28T04:45:53.610Z,90.91
2022-07-28T04:46:43.396Z,90.25
2022-07-28T04:47:42.310Z,90.45
2022-07-28T04:48:42.358Z,89.56
2022-07-28T04:49:42.292Z,88.76
2022-07-28T04:50:42.314Z,87.65
2022-07-28T04:51:42.279Z,85.63
2022-07-28T04:52:42.272Z,82.76
2022-07-28T04:53:42.268Z,79.52
2022-07-28T04:54:42.258Z,75.69
2022-07-28T04:55:42.284Z,72.08
2022-07-28T04:56:42.240Z,70.83
2022-07-28T04:57:42.242Z,68.13
2022-07-28T04:58:42.225Z,66.63
2022-07-28T04:59:42.218Z,65.52
2022-07-28T05:00:42.329Z,64.78
2022-07-28T05:01:42.255Z,63.18
2022-07-28T05:02:42.198Z,61.54
2022-07-28T05:03:42.197Z,61.71
2022-07-28T05:04:42.234Z,61.65
2022-07-28T05:05:42.198Z,62.22
2022-07-28T05:06:42.164Z,61.58
2022-07-28T05:07:42.157Z,59.42
2022-07-28T05:08:42.147Z,58.29
2022-07-28T05:09:42.142Z,57.76
2022-07-28T05:10:42.164Z,57.66
2022-07-28T05:11:42.126Z,57.73
2022-07-28T05:12:42.127Z,56.98
2022-07-28T05:13:42.113Z,55.92
2022-07-28T05:14:42.111Z,55.32
2022-07-28T05:15:42.118Z,55.32
2022-07-28T05:16:42.144Z,57.26
2022-07-28T05:17:42.081Z,60.33
2022-07-28T05:18:42.080Z,62.34
2022-07-28T05:19:42.061Z,64.10
2022-07-28T05:20:42.082Z,66.18
2022-07-28T05:21:42.050Z,68.03
2022-07-28T05:22:42.048Z,70.15
2022-07-28T05:23:45.703Z,71.73
2022-07-28T05:24:44.026Z,72.41
2022-07-28T05:25:42.045Z,73.26
2022-07-28T05:26:42.008Z,73.77
2022-07-28T05:27:42.003Z,74.62
2022-07-28T05:28:41.992Z,75.12
2022-07-28T05:29:47.667Z,74.44
2022-07-28T05:30:43.351Z,73.19
2022-07-28T05:31:42.109Z,72.45
2022-07-28T05:32:41.968Z,69.95
2022-07-28T05:33:41.960Z,67.70
2022-07-28T05:34:41.954Z,64.86
2022-07-28T05:35:41.939Z,62.92
2022-07-28T05:36:41.958Z,61.02
2022-07-28T05:37:41.926Z,58.96
2022-07-28T05:38:41.920Z,57.80
2022-07-28T05:39:41.905Z,57.24
2022-07-28T05:40:41.901Z,56.12
2022-07-28T05:41:41.916Z,55.29
2022-07-28T05:42:41.887Z,53.74
2022-07-28T05:43:41.877Z,53.84
2022-07-28T05:44:41.871Z,53.61
2022-07-28T05:45:41.878Z,53.29
2022-07-28T05:46:41.881Z,52.07
2022-07-28T05:47:41.851Z,53.04
2022-07-28T05:48:41.878Z,52.12
2022-07-28T05:49:41.844Z,51.72
2022-07-28T05:50:41.828Z,51.37
2022-07-28T05:51:42.100Z,50.52
2022-07-28T05:52:42.808Z,49.93
2022-07-28T05:53:41.810Z,49.91
2022-07-28T05:54:41.795Z,49.93
2022-07-28T05:55:59.815Z,49.91
2022-07-28T05:56:45.911Z,50.28
2022-07-28T05:57:42.771Z,48.96
2022-07-28T05:58:41.780Z,48.84
2022-07-28T05:59:41.767Z,49.16
2022-07-28T06:00:41.818Z,49.26
2022-07-28T06:01:41.799Z,49.88
2022-07-28T06:02:42.775Z,51.65
2022-07-28T06:03:42.640Z,52.09
2022-07-28T06:04:42.726Z,52.37
2022-07-28T06:06:14.453Z,55.57
2022-07-28T06:06:42.739Z,56.92
2022-07-28T06:07:42.955Z,56.82
2022-07-28T06:08:41.705Z,58.18
2022-07-28T06:09:45.077Z,57.48
2022-07-28T06:10:42.686Z,56.62
2022-07-28T06:11:41.703Z,55.82
2022-07-28T06:12:41.673Z,57.15
2022-07-28T06:13:41.670Z,56.42
2022-07-28T06:14:41.667Z,57.02
2022-07-28T06:15:41.653Z,56.65
2022-07-28T06:16:41.749Z,57.48
2022-07-28T06:17:41.638Z,57.55
2022-07-28T06:18:41.634Z,58.06
2022-07-28T06:19:41.647Z,59.49
2022-07-28T06:20:41.625Z,60.12
2022-07-28T06:21:41.681Z,59.46
2022-07-28T06:22:41.612Z,58.28
2022-07-28T06:23:41.598Z,57.98
2022-07-28T06:24:41.592Z,57.45
2022-07-28T06:25:41.589Z,56.74
2022-07-28T06:26:44.698Z,57.98
2022-07-28T06:27:42.571Z,57.05
2022-07-28T06:28:41.561Z,57.50
2022-07-28T06:29:41.560Z,57.73
2022-07-28T06:30:41.554Z,57.83
2022-07-28T06:31:41.670Z,57.63
2022-07-28T06:32:41.542Z,57.00
2022-07-28T06:33:41.540Z,58.33
2022-07-28T06:34:41.534Z,57.57
2022-07-28T06:35:45.886Z,57.10
2022-07-28T06:36:42.545Z,57.13
2022-07-28T06:37:41.530Z,58.59
2022-07-28T06:38:41.503Z,58.72
2022-07-28T06:39:41.494Z,59.99
2022-07-28T06:40:41.497Z,58.26
2022-07-28T06:41:41.539Z,58.59
2022-07-28T06:42:41.477Z,59.06
2022-07-28T06:43:41.466Z,58.23
2022-07-28T06:44:57.930Z,56.92
2022-07-28T06:45:43.450Z,57.15
2022-07-28T06:46:41.533Z,57.96
2022-07-28T06:47:45.695Z,58.26
2022-07-28T06:48:42.485Z,58.16
2022-07-28T06:49:41.426Z,58.96
2022-07-28T06:50:41.417Z,58.76
2022-07-28T06:51:41.440Z,57.57
2022-07-28T06:52:41.408Z,57.57
2022-07-28T06:53:41.404Z,57.10
2022-07-28T06:54:41.389Z,56.50
2022-07-28T06:55:42.380Z,55.69
2022-07-28T06:56:42.399Z,53.61
2022-07-28T06:57:41.376Z,52.19
2022-07-28T06:58:41.357Z,51.87
2022-07-28T06:59:41.359Z,52.97
2022-07-28T07:00:41.376Z,51.15
2022-07-28T07:01:41.376Z,52.34
2022-07-28T07:02:41.345Z,54.02
2022-07-28T07:03:41.323Z,54.72
2022-07-28T07:04:41.415Z,53.69
2022-07-28T07:05:41.323Z,54.69
2022-07-28T07:06:41.328Z,55.44
2022-07-28T07:07:43.630Z,56.48
2022-07-28T07:08:42.292Z,55.47
2022-07-28T07:09:41.293Z,53.59
2022-07-28T07:10:41.288Z,54.64
2022-07-28T07:11:41.300Z,55.02
2022-07-28T07:12:41.271Z,54.29
2022-07-28T07:13:41.256Z,53.87
2022-07-28T07:14:41.254Z,51.94
2022-07-28T07:15:41.253Z,52.12
2022-07-28T07:16:41.291Z,52.09
2022-07-28T07:17:41.241Z,52.02
2022-07-28T07:18:41.232Z,51.27
2022-07-28T07:19:41.218Z,49.75
2022-07-28T07:20:41.213Z,50.55
2022-07-28T07:21:41.233Z,52.14
2022-07-28T07:22:41.204Z,52.17
2022-07-28T07:23:41.198Z,54.22
2022-07-28T07:24:41.190Z,53.39
2022-07-28T07:25:41.178Z,53.89
2022-07-28T07:26:41.203Z,52.57
2022-07-28T07:27:41.165Z,52.25
2022-07-28T07:28:41.154Z,51.54
2022-07-28T07:29:41.157Z,53.04
2022-07-28T07:30:41.147Z,52.27
2022-07-28T07:31:41.218Z,52.64
2022-07-28T07:32:41.143Z,52.12
2022-07-28T07:33:41.132Z,52.19
2022-07-28T07:34:41.120Z,52.02
2022-07-28T07:35:41.119Z,52.02
2022-07-28T07:36:41.108Z,52.14
2022-07-28T07:37:41.124Z,51.84
2022-07-28T07:38:41.101Z,52.14
2022-07-28T07:39:41.083Z,51.82
2022-07-28T07:40:41.089Z,51.27
2022-07-28T07:41:41.074Z,50.95
2022-07-28T07:42:41.083Z,51.75
2022-07-28T07:43:45.786Z,50.97
2022-07-28T07:44:43.048Z,51.89
2022-07-28T07:45:42.038Z,53.42
2022-07-28T07:46:41.107Z,52.47
2022-07-28T07:47:41.056Z,51.97
2022-07-28T07:48:41.069Z,51.03
2022-07-28T07:49:45.194Z,50.13
2022-07-28T07:50:43.020Z,50.32
2022-07-28T07:51:41.007Z,50.55
2022-07-28T07:52:41.030Z,52.02
2022-07-28T07:53:40.992Z,52.02
2022-07-28T07:54:40.980Z,52.04
2022-07-28T07:55:40.972Z,53.49
2022-07-28T07:56:40.969Z,53.69
2022-07-28T07:57:40.984Z,53.12
2022-07-28T07:58:40.950Z,54.29
2022-07-28T07:59:40.944Z,54.14
2022-07-28T08:00:40.949Z,51.84
2022-07-28T08:01:40.973Z,53.22
2022-07-28T08:02:40.955Z,51.79
2022-07-28T08:03:40.917Z,51.27
2022-07-28T08:04:40.959Z,51.47
2022-07-28T08:05:40.907Z,51.67
2022-07-28T08:06:40.904Z,51.77
2022-07-28T08:07:40.914Z,51.87
2022-07-28T08:08:45.102Z,49.93
2022-07-28T08:09:42.869Z,49.53
2022-07-28T08:10:41.872Z,49.85
2022-07-28T08:11:40.866Z,49.63
2022-07-28T08:12:40.887Z,50.00
2022-07-28T08:13:40.868Z,50.43
2022-07-28T08:14:40.839Z,49.18
2022-07-28T08:15:40.892Z,49.58
2022-07-28T08:16:40.925Z,49.60
2022-07-28T08:17:40.849Z,49.28
2022-07-28T08:18:40.821Z,49.30
2022-07-28T08:19:40.808Z,49.60
2022-07-28T08:20:41.702Z,49.28
2022-07-28T08:21:40.801Z,49.08
2022-07-28T08:22:40.814Z,49.68
2022-07-28T08:23:40.784Z,49.18
2022-07-28T08:24:40.775Z,49.30
2022-07-28T08:25:40.767Z,48.98
2022-07-28T08:26:40.763Z,50.20
2022-07-28T08:27:40.778Z,49.87
2022-07-28T08:28:40.748Z,51.27
2022-07-28T08:29:40.742Z,50.47
2022-07-28T08:30:40.735Z,50.85
2022-07-28T08:31:40.803Z,50.02
2022-07-28T08:32:40.752Z,49.95
2022-07-28T08:33:53.840Z,50.05
2022-07-28T08:34:41.711Z,49.93
2022-07-28T08:35:40.702Z,49.38
2022-07-28T08:36:40.691Z,48.94
2022-07-28T08:37:40.714Z,48.14
2022-07-28T08:38:40.685Z,48.26
2022-07-28T08:39:40.672Z,48.52
2022-07-28T08:40:40.663Z,48.16
2022-07-28T08:41:40.656Z,47.66
2022-07-28T08:42:40.654Z,49.55
2022-07-28T08:43:40.672Z,49.25
2022-07-28T08:44:40.640Z,49.45
2022-07-28T08:45:40.629Z,49.68
2022-07-28T08:46:40.688Z,49.38
2022-07-28T08:47:58.866Z,48.76
2022-07-28T08:48:42.669Z,49.08
2022-07-28T08:49:41.603Z,49.51
2022-07-28T08:50:40.590Z,48.58
2022-07-28T08:51:40.580Z,48.49
2022-07-28T08:52:40.574Z,48.58
2022-07-28T08:53:41.587Z,49.01
2022-07-28T08:54:40.556Z,48.91
2022-07-28T08:55:41.556Z,48.98
2022-07-28T08:56:40.549Z,49.28
2022-07-28T08:57:41.541Z,49.21
2022-07-28T08:58:40.560Z,49.30
2022-07-28T08:59:40.530Z,48.38
2022-07-28T09:00:40.519Z,49.21
2022-07-28T09:01:40.669Z,49.25
2022-07-28T09:02:40.617Z,49.70
2022-07-28T09:03:40.550Z,49.38
2022-07-28T09:04:40.493Z,49.76
2022-07-28T09:05:40.480Z,48.66
2022-07-28T09:06:40.470Z,47.59
2022-07-28T09:07:40.465Z,49.08
2022-07-28T09:08:40.483Z,48.93
2022-07-28T09:09:40.458Z,49.33
2022-07-28T09:10:40.443Z,49.10
2022-07-28T09:11:40.442Z,49.08
2022-07-28T09:12:40.439Z,48.88
2022-07-28T09:13:40.468Z,49.10
2022-07-28T09:14:40.417Z,50.20
2022-07-28T09:15:40.458Z,49.63
2022-07-28T09:16:40.399Z,50.65
2022-07-28T09:17:40.410Z,50.02
2022-07-28T09:18:40.413Z,50.35
2022-07-28T09:19:40.379Z,51.17
2022-07-28T09:20:41.371Z,49.23
2022-07-28T09:21:40.365Z,50.00
2022-07-28T09:22:40.365Z,49.01
2022-07-28T09:23:43.817Z,49.70
2022-07-28T09:24:40.346Z,49.51
2022-07-28T09:25:40.341Z,49.10
2022-07-28T09:26:40.327Z,49.08
2022-07-28T09:27:40.354Z,48.91
2022-07-28T09:28:40.339Z,50.32
2022-07-28T09:29:40.315Z,50.60
2022-07-28T09:30:53.812Z,49.88
2022-07-28T09:31:41.352Z,48.74
2022-07-28T09:32:40.282Z,48.74
2022-07-28T09:33:42.502Z,47.92
2022-07-28T09:34:40.269Z,47.94
2022-07-28T09:35:40.265Z,48.68
2022-07-28T09:36:40.244Z,48.61
2022-07-28T09:37:41.250Z,49.85
2022-07-28T09:38:40.266Z,48.96
2022-07-28T09:39:40.234Z,48.76
2022-07-28T09:40:40.227Z,49.36
2022-07-28T09:41:40.229Z,49.48
2022-07-28T09:42:40.211Z,49.70
2022-07-28T09:43:40.232Z,48.91
2022-07-28T09:44:40.193Z,49.18
2022-07-28T09:45:40.236Z,49.28
2022-07-28T09:46:40.394Z,48.98
2022-07-28T09:47:40.448Z,49.08
2022-07-28T09:48:40.314Z,49.01
2022-07-28T09:49:40.235Z,49.51
2022-07-28T09:50:40.149Z,50.13
2022-07-28T09:51:40.141Z,50.85
2022-07-28T09:52:40.138Z,50.25
2022-07-28T09:53:40.133Z,50.67
2022-07-28T09:54:41.233Z,51.37
2022-07-28T09:55:41.119Z,49.75
2022-07-28T09:56:40.117Z,49.73
2022-07-28T09:57:40.231Z,49.55
2022-07-28T09:58:40.091Z,50.55
2022-07-28T09:59:41.114Z,49.53
2022-07-28T10:00:40.082Z,51.20
2022-07-28T10:01:40.162Z,49.51
2022-07-28T10:02:40.162Z,49.60
2022-07-28T10:03:40.061Z,49.51
2022-07-28T10:04:40.077Z,49.60
2022-07-28T10:05:40.042Z,51.12
2022-07-28T10:06:40.034Z,49.70
2022-07-28T10:07:40.023Z,50.40
2022-07-28T10:08:41.858Z,49.51
2022-07-28T10:09:40.041Z,49.25
2022-07-28T10:10:40.002Z,50.85
2022-07-28T10:11:41.869Z,49.63
2022-07-28T10:12:40.980Z,50.15
2022-07-28T10:13:39.979Z,50.45
2022-07-28T10:14:39.998Z,49.93
2022-07-28T10:15:43.307Z,50.82
2022-07-28T10:16:40.997Z,49.43
2022-07-28T10:17:39.946Z,50.02
2022-07-28T10:18:39.958Z,49.40
2022-07-28T10:19:39.956Z,50.40
2022-07-28T10:20:39.919Z,50.20
2022-07-28T10:21:39.913Z,49.51
2022-07-28T10:22:43.305Z,48.98
2022-07-28T10:23:40.895Z,49.40
2022-07-28T10:24:39.936Z,49.70
2022-07-28T10:25:40.893Z,48.91
2022-07-28T10:26:39.879Z,48.08
2022-07-28T10:27:39.870Z,48.08
2022-07-28T10:28:42.337Z,48.41
2022-07-28T10:29:40.883Z,50.30
2022-07-28T10:30:39.884Z,49.73
2022-07-28T10:31:39.843Z,48.61
2022-07-28T10:32:39.839Z,49.26
2022-07-28T10:33:39.832Z,48.14
2022-07-28T10:34:39.832Z,48.14
2022-07-28T10:35:51.003Z,48.83
2022-07-28T10:36:40.804Z,47.86
2022-07-28T10:37:39.796Z,47.64
2022-07-28T10:38:39.790Z,48.16
2022-07-28T10:39:39.803Z,47.77
2022-07-28T10:40:39.771Z,47.96
2022-07-28T10:41:39.766Z,47.96
2022-07-28T10:42:39.754Z,47.47
2022-07-28T10:43:42.727Z,48.08
2022-07-28T10:44:40.761Z,49.21
2022-07-28T10:46:04.571Z,49.21
2022-07-28T10:46:41.779Z,49.08
2022-07-28T10:47:39.717Z,48.28
2022-07-28T10:48:39.746Z,47.66
2022-07-28T10:49:39.737Z,47.56
2022-07-28T10:50:39.708Z,47.86
2022-07-28T10:51:59.793Z,46.65
2022-07-28T10:52:50.628Z,47.44
2022-07-28T10:53:41.680Z,47.44
2022-07-28T10:54:41.019Z,45.61
2022-07-28T10:55:40.758Z,46.11
2022-07-28T10:56:39.665Z,46.72
2022-07-28T10:57:39.647Z,46.83
2022-07-28T10:58:39.642Z,47.52
2022-07-28T10:59:39.630Z,46.65
2022-07-28T11:00:54.990Z,46.95
2022-07-28T11:01:50.030Z,47.44
2022-07-28T11:02:41.757Z,47.92
2022-07-28T11:03:39.689Z,47.02
2022-07-28T11:04:39.598Z,46.42
2022-07-28T11:05:39.611Z,46.31
2022-07-28T11:06:39.578Z,46.70
2022-07-28T11:07:39.586Z,46.20
2022-07-28T11:08:39.566Z,46.50
2022-07-28T11:09:39.550Z,45.71
2022-07-28T11:10:39.575Z,46.19
2022-07-28T11:11:39.541Z,45.64
2022-07-28T11:12:39.530Z,45.10
2022-07-28T11:13:41.272Z,44.09
2022-07-28T11:14:39.839Z,45.40
2022-07-28T11:15:39.547Z,45.23
2022-07-28T11:16:39.568Z,46.19
2022-07-28T11:17:39.718Z,45.89
2022-07-28T11:18:39.666Z,45.49
2022-07-28T11:19:46.925Z,45.68
2022-07-28T11:20:40.498Z,46.68
2022-07-28T11:21:43.485Z,45.59
2022-07-28T11:22:39.456Z,45.68
2022-07-28T11:23:39.444Z,45.98
2022-07-28T11:24:39.459Z,46.19
2022-07-28T11:25:40.456Z,45.96
2022-07-28T11:26:39.431Z,45.05
2022-07-28T11:27:39.420Z,44.43
2022-07-28T11:28:39.422Z,44.43
2022-07-28T11:29:39.418Z,44.01
2022-07-28T11:30:39.456Z,43.82
2022-07-28T11:31:39.399Z,43.99
2022-07-28T11:32:44.200Z,44.19
2022-07-28T11:33:47.072Z,43.62
2022-07-28T11:34:40.368Z,44.23
2022-07-28T11:35:39.390Z,46.19
2022-07-28T11:36:39.356Z,46.01
2022-07-28T11:37:39.354Z,45.73
2022-07-28T11:38:39.340Z,46.42
2022-07-28T11:39:43.327Z,46.70
2022-07-28T11:40:39.356Z,45.79
2022-07-28T11:41:39.316Z,45.59
2022-07-28T11:42:39.312Z,46.01
2022-07-28T11:43:39.617Z,46.20
2022-07-28T11:44:39.293Z,46.72
2022-07-28T11:45:41.320Z,46.70
2022-07-28T11:46:40.303Z,45.41
2022-07-28T11:47:39.271Z,45.90
2022-07-28T11:48:39.409Z,45.89
2022-07-28T11:49:39.251Z,45.37
2022-07-28T11:50:39.301Z,45.56
2022-07-28T11:51:52.672Z,44.45
2022-07-28T11:52:41.228Z,44.33
2022-07-28T11:53:39.223Z,44.73
2022-07-28T11:54:39.217Z,44.23
2022-07-28T11:55:55.267Z,45.79
2022-07-28T11:56:40.204Z,44.25
2022-07-28T11:57:39.192Z,45.37
2022-07-28T11:58:39.189Z,46.16
2022-07-28T11:59:39.191Z,46.16
2022-07-28T12:00:39.168Z,44.97
2022-07-28T12:01:39.186Z,44.99
2022-07-28T12:02:39.196Z,45.98
2022-07-28T12:03:50.233Z,45.98
2022-07-28T12:04:40.233Z,46.46
2022-07-28T12:05:41.975Z,44.48
2022-07-28T12:06:39.146Z,45.09
2022-07-28T12:07:39.121Z,44.85
2022-07-28T12:08:39.104Z,44.85
2022-07-28T12:09:42.483Z,44.43
2022-07-28T12:10:56.175Z,45.15
2022-07-28T12:11:41.135Z,44.06
2022-07-28T12:12:39.076Z,44.75
2022-07-28T12:13:39.073Z,44.04
2022-07-28T12:14:39.245Z,44.39
2022-07-28T12:15:39.048Z,43.89
2022-07-28T12:16:39.646Z,43.62
2022-07-28T12:17:40.673Z,43.62
2022-07-28T12:18:39.025Z,44.41
2022-07-28T12:19:39.022Z,44.11
2022-07-28T12:20:39.013Z,46.12
2022-07-28T12:21:46.040Z,44.63
2022-07-28T12:22:39.996Z,43.44
2022-07-28T12:23:46.270Z,43.71
2022-07-28T12:24:45.865Z,44.49
2022-07-28T12:25:40.974Z,44.21
2022-07-28T12:26:40.891Z,44.04
2022-07-28T12:27:38.958Z,44.93
2022-07-28T12:28:39.951Z,45.00
2022-07-28T12:29:38.939Z,44.31
2022-07-28T12:30:38.936Z,42.94
2022-07-28T12:31:39.060Z,43.93
2022-07-28T12:32:38.916Z,42.94
2022-07-28T12:33:38.911Z,43.24
2022-07-28T12:34:38.900Z,44.13
2022-07-28T12:35:38.894Z,43.85
2022-07-28T12:36:38.913Z,44.95
2022-07-28T12:37:38.877Z,45.07
2022-07-28T12:38:38.875Z,44.67
2022-07-28T12:39:38.862Z,44.57
2022-07-28T12:40:38.854Z,46.04
2022-07-28T12:41:38.872Z,45.15
2022-07-28T12:42:38.843Z,44.35
2022-07-28T12:43:38.832Z,43.96
2022-07-28T12:44:38.820Z,43.74
2022-07-28T12:45:39.884Z,42.92
2022-07-28T12:46:38.839Z,42.50
2022-07-28T12:47:38.804Z,42.80
2022-07-28T12:48:38.803Z,43.40
2022-07-28T12:49:38.796Z,43.99
2022-07-28T12:50:38.776Z,43.30
2022-07-28T12:51:38.810Z,43.62
2022-07-28T12:52:38.764Z,44.11